Time,TemperatureF,DewpointF,PressureIn,WindDirection,WindDirectionDegrees,WindSpeedMPH,WindSpeedGustMPH,Humidity,HourlyPrecipIn,Conditions,Clouds,dailyrainin,SoftwareType,DateUTC
2013-10-01 00:08:00,48.8,47.0,29.95,South,175,0.0,0.0,93,0.00,,,0.00,weatherlink.com 1.10,2013-10-01 04:08:00,
2013-10-01 00:24:00,48.3,46.0,29.95,South,175,0.0,0.0,93,0.00,,,0.00,weatherlink.com 1.10,2013-10-01 04:24:00,
2013-10-01 00:39:00,48.0,46.0,29.95,South,175,0.0,0.0,93,0.00,,,0.00,weatherlink.com 1.10,2013-10-01 04:39:00,
2013-10-01 00:54:00,47.7,46.0,29.95,South,175,0.0,0.0,94,0.00,,,0.00,weatherlink.com 1.10,2013-10-01 04:54:00,
2013-10-01 01:09:00,47.5,46.0,29.95,South,175,0.0,0.0,94,0.00,,,0.00,weatherlink.com 1.10,2013-10-01 05:09:00,
2013-10-01 01:24:00,47.3,46.0,29.95,South,175,0.0,0.0,94,0.00,,,0.00,weatherlink.com 1.10,2013-10-01 05:24:00,
2013-10-01 01:39:00,47.1,46.0,29.95,South,175,0.0,0.0,94,0.00,,,0.00,weatherlink.com 1.10,2013-10-01 05:39:00,
2013-10-01 01:54:00,47.1,46.0,29.94,South,175,0.0,0.0,94,0.00,,,0.00,weatherlink.com 1.10,2013-10-01 05:54:00,
2013-10-01 02:09:00,47.1,46.0,29.94,South,175,0.0,0.0,94,0.00,,,0.00,weatherlink.com 1.10,2013-10-01 06:09:00,
2013-10-01 02:24:00,47.0,45.0,29.94,South,175,0.0,0.0,94,0.00,,,0.00,weatherlink.com 1.10,2013-10-01 06:24:00,
2013-10-01 02:39:00,46.7,45.0,29.93,South,175,0.0,0.0,94,0.00,,,0.00,weatherlink.com 1.10,2013-10-01 06:39:00,
2013-10-01 02:54:00,46.5,45.0,29.93,South,175,0.0,0.0,94,0.00,,,0.00,weatherlink.com 1.10,2013-10-01 06:54:00,
2013-10-01 03:09:00,46.5,45.0,29.93,South,175,0.0,0.0,95,0.00,,,0.00,weatherlink.com 1.10,2013-10-01 07:09:00,
2013-10-01 03:24:00,46.3,45.0,29.93,WSW,245,0.0,1.0,95,0.00,,,0.00,weatherlink.com 1.10,2013-10-01 07:24:00,
2013-10-01 03:39:00,46.5,45.0,29.93,WSW,250,0.0,0.0,95,0.00,,,0.00,weatherlink.com 1.10,2013-10-01 07:39:00,
2013-10-01 03:54:00,46.6,45.0,29.93,WSW,250,0.0,0.0,95,0.00,,,0.00,weatherlink.com 1.10,2013-10-01 07:54:00,
2013-10-01 04:09:00,47.2,46.0,29.92,NNW,342,0.0,1.0,95,0.00,,,0.00,weatherlink.com 1.10,2013-10-01 08:09:00,
2013-10-01 04:24:00,47.4,46.0,29.92,NNW,342,0.0,0.0,95,0.00,,,0.00,weatherlink.com 1.10,2013-10-01 08:24:00,
2013-10-01 04:39:00,47.7,46.0,29.92,ENE,62,0.0,1.0,95,0.00,,,0.00,weatherlink.com 1.10,2013-10-01 08:39:00,
2013-10-01 04:54:00,47.6,46.0,29.93,ENE,63,0.0,0.0,95,0.00,,,0.00,weatherlink.com 1.10,2013-10-01 08:54:00,
2013-10-01 05:09:00,47.5,46.0,29.92,ENE,62,0.0,0.0,95,0.00,,,0.00,weatherlink.com 1.10,2013-10-01 09:09:00,
2013-10-01 05:24:00,47.2,46.0,29.93,ENE,62,0.0,0.0,95,0.00,,,0.00,weatherlink.com 1.10,2013-10-01 09:24:00,
2013-10-01 05:39:00,46.8,46.0,29.93,ENE,61,0.0,0.0,95,0.00,,,0.00,weatherlink.com 1.10,2013-10-01 09:39:00,
2013-10-01 05:54:00,46.3,45.0,29.93,ENE,61,0.0,0.0,95,0.00,,,0.00,weatherlink.com 1.10,2013-10-01 09:54:00,
2013-10-01 06:09:00,46.1,45.0,29.93,West,277,0.0,1.0,95,0.00,,,0.00,weatherlink.com 1.10,2013-10-01 10:09:00,
2013-10-01 06:24:00,46.0,45.0,29.94,West,279,0.0,0.0,95,0.00,,,0.00,weatherlink.com 1.10,2013-10-01 10:24:00,
2013-10-01 06:39:00,45.9,45.0,29.94,West,277,0.0,0.0,95,0.00,,,0.00,weatherlink.com 1.10,2013-10-01 10:39:00,
2013-10-01 06:54:00,46.2,45.0,29.94,SW,234,0.0,1.0,96,0.00,,,0.00,weatherlink.com 1.10,2013-10-01 10:54:00,
2013-10-01 07:09:00,46.3,45.0,29.95,SW,235,0.0,1.0,96,0.00,,,0.00,weatherlink.com 1.10,2013-10-01 11:09:00,
2013-10-01 07:24:00,46.8,46.0,29.95,SW,234,0.0,0.0,96,0.00,,,0.00,weatherlink.com 1.10,2013-10-01 11:24:00,
2013-10-01 07:39:00,47.7,47.0,29.95,SW,234,0.0,0.0,96,0.00,,,0.00,weatherlink.com 1.10,2013-10-01 11:39:00,
2013-10-01 07:54:00,49.2,48.0,29.94,SW,225,0.0,0.0,96,0.00,,,0.00,weatherlink.com 1.10,2013-10-01 11:54:00,
2013-10-01 08:09:00,51.2,50.0,29.95,West,279,0.0,1.0,96,0.00,,,0.00,weatherlink.com 1.10,2013-10-01 12:09:00,
2013-10-01 08:24:00,53.1,51.0,29.95,WSW,248,0.0,1.0,93,0.00,,,0.00,weatherlink.com 1.10,2013-10-01 12:24:00,
2013-10-01 08:39:00,56.4,53.0,29.95,WSW,237,0.0,1.0,87,0.00,,,0.00,weatherlink.com 1.10,2013-10-01 12:39:00,
2013-10-01 08:55:00,59.2,54.0,29.95,SSW,200,0.0,1.0,82,0.00,,,0.00,weatherlink.com 1.10,2013-10-01 12:55:00,
2013-10-01 09:09:00,60.4,53.0,29.95,SW,221,0.0,3.0,77,0.00,,,0.00,weatherlink.com 1.10,2013-10-01 13:09:00,
2013-10-01 09:25:00,62.0,54.0,29.95,WNW,291,0.0,2.0,74,0.00,,,0.00,weatherlink.com 1.10,2013-10-01 13:25:00,
2013-10-01 09:40:00,63.5,54.0,29.95,NNW,332,1.0,4.0,71,0.00,,,0.00,weatherlink.com 1.10,2013-10-01 13:40:00,
2013-10-01 09:55:00,64.8,54.0,29.95,ENE,62,1.0,3.0,67,0.00,,,0.00,weatherlink.com 1.10,2013-10-01 13:55:00,
2013-10-01 10:10:00,65.8,54.0,29.95,East,90,0.0,3.0,66,0.00,,,0.00,weatherlink.com 1.10,2013-10-01 14:10:00,
2013-10-01 10:25:00,66.6,53.0,29.93,East,101,1.0,4.0,63,0.00,,,0.00,weatherlink.com 1.10,2013-10-01 14:25:00,
2013-10-01 10:40:00,67.3,53.0,29.93,NW,321,1.0,5.0,61,0.00,,,0.00,weatherlink.com 1.10,2013-10-01 14:40:00,
2013-10-01 10:55:00,68.3,54.0,29.93,WNW,290,1.0,4.0,61,0.00,,,0.00,weatherlink.com 1.10,2013-10-01 14:55:00,
2013-10-01 11:10:00,68.9,55.0,29.93,WNW,298,0.0,4.0,61,0.00,,,0.00,weatherlink.com 1.10,2013-10-01 15:10:00,
2013-10-01 11:25:00,70.5,55.0,29.92,West,265,1.0,5.0,59,0.00,,,0.00,weatherlink.com 1.10,2013-10-01 15:25:00,
2013-10-01 11:40:00,72.0,53.0,29.91,West,276,1.0,4.0,52,0.00,,,0.00,weatherlink.com 1.10,2013-10-01 15:40:00,
2013-10-01 11:55:00,73.1,54.0,29.91,NW,311,0.0,5.0,52,0.00,,,0.00,weatherlink.com 1.10,2013-10-01 15:55:00,
2013-10-01 12:10:00,74.0,54.0,29.90,NNW,343,2.0,5.0,49,0.00,,,0.00,weatherlink.com 1.10,2013-10-01 16:10:00,
2013-10-01 12:25:00,74.7,52.0,29.90,WNW,286,0.0,6.0,46,0.00,,,0.00,weatherlink.com 1.10,2013-10-01 16:25:00,
2013-10-01 12:40:00,75.4,51.0,29.89,WSW,256,1.0,3.0,42,0.00,,,0.00,weatherlink.com 1.10,2013-10-01 16:40:00,
2013-10-01 12:55:00,76.1,51.0,29.88,SW,230,2.0,5.0,41,0.00,,,0.00,weatherlink.com 1.10,2013-10-01 16:55:00,
2013-10-01 13:10:00,76.1,52.0,29.88,NNE,12,2.0,4.0,43,0.00,,,0.00,weatherlink.com 1.10,2013-10-01 17:10:00,
2013-10-01 13:25:00,76.8,51.0,29.87,West,260,0.0,4.0,40,0.00,,,0.00,weatherlink.com 1.10,2013-10-01 17:25:00,
2013-10-01 13:40:00,76.4,52.0,29.87,NW,310,2.0,5.0,43,0.00,,,0.00,weatherlink.com 1.10,2013-10-01 17:40:00,
2013-10-01 13:55:00,76.7,51.0,29.86,WSW,252,3.0,7.0,40,0.00,,,0.00,weatherlink.com 1.10,2013-10-01 17:55:00,
2013-10-01 14:10:00,77.1,50.0,29.86,NNW,337,5.0,8.0,39,0.00,,,0.00,weatherlink.com 1.10,2013-10-01 18:10:00,
2013-10-01 14:25:00,78.0,52.0,29.85,NW,306,1.0,5.0,40,0.00,,,0.00,weatherlink.com 1.10,2013-10-01 18:25:00,
2013-10-01 14:40:00,77.4,52.0,29.85,SSW,200,5.0,6.0,41,0.00,,,0.00,weatherlink.com 1.10,2013-10-01 18:40:00,
2013-10-01 14:55:00,78.2,52.0,29.85,WNW,287,1.0,4.0,40,0.00,,,0.00,weatherlink.com 1.10,2013-10-01 18:55:00,
2013-10-01 15:11:00,78.3,52.0,29.84,East,100,2.0,4.0,40,0.00,,,0.00,weatherlink.com 1.10,2013-10-01 19:11:00,
2013-10-01 15:26:00,78.4,53.0,29.84,NNW,344,2.0,6.0,41,0.00,,,0.00,weatherlink.com 1.10,2013-10-01 19:26:00,
2013-10-01 15:41:00,78.9,53.0,29.84,NW,324,0.0,3.0,41,0.00,,,0.00,weatherlink.com 1.10,2013-10-01 19:41:00,
2013-10-01 15:56:00,78.4,53.0,29.83,WNW,294,0.0,4.0,42,0.00,,,0.00,weatherlink.com 1.10,2013-10-01 19:56:00,
2013-10-01 16:11:00,79.1,53.0,29.83,SW,226,1.0,2.0,40,0.00,,,0.00,weatherlink.com 1.10,2013-10-01 20:11:00,
2013-10-01 16:26:00,79.1,53.0,29.83,West,281,0.0,2.0,40,0.00,,,0.00,weatherlink.com 1.10,2013-10-01 20:26:00,
2013-10-01 16:41:00,78.3,53.0,29.83,WNW,294,2.0,3.0,41,0.00,,,0.00,weatherlink.com 1.10,2013-10-01 20:41:00,
2013-10-01 16:56:00,78.0,52.0,29.84,WSW,251,0.0,4.0,41,0.00,,,0.00,weatherlink.com 1.10,2013-10-01 20:56:00,
2013-10-01 17:11:00,77.9,53.0,29.84,WNW,284,2.0,2.0,42,0.00,,,0.00,weatherlink.com 1.10,2013-10-01 21:11:00,
2013-10-01 17:26:00,76.2,53.0,29.84,SW,218,0.0,2.0,45,0.00,,,0.00,weatherlink.com 1.10,2013-10-01 21:26:00,
2013-10-01 17:41:00,74.9,54.0,29.84,NW,325,0.0,1.0,49,0.00,,,0.00,weatherlink.com 1.10,2013-10-01 21:41:00,
2013-10-01 17:56:00,73.2,55.0,29.84,NW,325,0.0,1.0,53,0.00,,,0.00,weatherlink.com 1.10,2013-10-01 21:56:00,
2013-10-01 18:11:00,71.5,55.0,29.84,NW,325,0.0,0.0,56,0.00,,,0.00,weatherlink.com 1.10,2013-10-01 22:11:00,
2013-10-01 18:26:00,69.7,55.0,29.85,NW,324,0.0,0.0,60,0.00,,,0.00,weatherlink.com 1.10,2013-10-01 22:26:00,
2013-10-01 18:41:00,68.1,55.0,29.85,NW,323,0.0,0.0,63,0.00,,,0.00,weatherlink.com 1.10,2013-10-01 22:41:00,
2013-10-01 18:56:00,66.9,55.0,29.85,NW,323,0.0,1.0,66,0.00,,,0.00,weatherlink.com 1.10,2013-10-01 22:56:00,
2013-10-01 19:11:00,66.1,55.0,29.85,NW,323,0.0,0.0,67,0.00,,,0.00,weatherlink.com 1.10,2013-10-01 23:11:00,
2013-10-01 19:26:00,65.0,55.0,29.86,NW,323,0.0,1.0,70,0.00,,,0.00,weatherlink.com 1.10,2013-10-01 23:26:00,
2013-10-01 19:41:00,63.8,55.0,29.86,NW,323,0.0,0.0,73,0.00,,,0.00,weatherlink.com 1.10,2013-10-01 23:41:00,
2013-10-01 19:56:00,63.2,56.0,29.87,NW,323,0.0,0.0,76,0.00,,,0.00,weatherlink.com 1.10,2013-10-01 23:56:00,
2013-10-01 20:11:00,62.5,56.0,29.87,NW,323,0.0,0.0,78,0.00,,,0.00,weatherlink.com 1.10,2013-10-02 00:11:00,
2013-10-01 20:26:00,61.7,55.0,29.87,NW,323,0.0,0.0,79,0.00,,,0.00,weatherlink.com 1.10,2013-10-02 00:26:00,
2013-10-01 20:41:00,61.2,55.0,29.88,NW,323,0.0,0.0,81,0.00,,,0.00,weatherlink.com 1.10,2013-10-02 00:41:00,
2013-10-01 20:56:00,60.8,55.0,29.88,NW,323,0.0,0.0,81,0.00,,,0.00,weatherlink.com 1.10,2013-10-02 00:56:00,
2013-10-01 21:11:00,60.2,55.0,29.87,West,272,0.0,0.0,83,0.00,,,0.00,weatherlink.com 1.10,2013-10-02 01:11:00,
2013-10-01 21:26:00,59.7,55.0,29.87,West,272,0.0,0.0,84,0.00,,,0.00,weatherlink.com 1.10,2013-10-02 01:26:00,
2013-10-01 21:41:00,58.9,54.0,29.88,West,272,0.0,0.0,85,0.00,,,0.00,weatherlink.com 1.10,2013-10-02 01:41:00,
2013-10-01 21:56:00,58.7,55.0,29.88,West,272,0.0,0.0,86,0.00,,,0.00,weatherlink.com 1.10,2013-10-02 01:56:00,
2013-10-01 22:11:00,58.6,55.0,29.88,West,272,0.0,0.0,87,0.00,,,0.00,weatherlink.com 1.10,2013-10-02 02:11:00,
2013-10-01 22:26:00,58.6,55.0,29.88,West,272,0.0,0.0,86,0.00,,,0.00,weatherlink.com 1.10,2013-10-02 02:26:00,
2013-10-01 22:41:00,58.2,54.0,29.88,West,272,0.0,0.0,87,0.00,,,0.00,weatherlink.com 1.10,2013-10-02 02:41:00,
2013-10-01 22:56:00,57.7,54.0,29.87,West,272,0.0,0.0,88,0.00,,,0.00,weatherlink.com 1.10,2013-10-02 02:56:00,
2013-10-01 23:11:00,57.3,54.0,29.87,West,272,0.0,0.0,88,0.00,,,0.00,weatherlink.com 1.10,2013-10-02 03:11:00,
2013-10-01 23:26:00,56.8,54.0,29.87,West,272,0.0,0.0,89,0.00,,,0.00,weatherlink.com 1.10,2013-10-02 03:26:00,
2013-10-01 23:41:00,56.3,53.0,29.87,West,272,0.0,0.0,89,0.00,,,0.00,weatherlink.com 1.10,2013-10-02 03:41:00,
2013-10-01 23:56:00,56.1,53.0,29.87,West,272,0.0,0.0,90,0.00,,,0.00,weatherlink.com 1.10,2013-10-02 03:56:00,